Time;durP1;ratioP1;P1;durP2;ratioP2;P2;SDS_P1;SDS_P2;PMS_P1;PMS_P2;Temp;Humidity;BMP_temperature;BMP_pressure;BME280_temperature;BME280_humidity;BME280_pressure;Samples;Min_cycle;Max_cycle;Signal;HPM_P1;HPM_P2
2024/02/28 00:01:22;;;;;;;22.87;21.13;;;11.60;22.10;;;;;;4931022;29;20754;-80
2024/02/28 00:03:47;;;;;;;21.70;20.10;;;11.60;22.20;;;;;;4922885;29;20192;-81
2024/02/28 00:06:18;;;;;;;23.53;21.87;;;11.60;22.30;;;;;;4932107;29;20294;-79
2024/02/28 00:08:44;;;;;;;21.77;20.27;;;11.50;22.50;;;;;;4934489;29;20204;-80
2024/02/28 00:11:09;;;;;;;24.20;22.33;;;11.50;22.60;;;;;;4924925;29;20436;-79
2024/02/28 00:13:35;;;;;;;22.67;20.97;;;11.50;22.60;;;;;;4912236;29;20214;-79
2024/02/28 00:16:01;;;;;;;22.83;21.23;;;11.50;22.70;;;;;;4930440;29;20594;-79
2024/02/28 00:18:26;;;;;;;22.70;21.00;;;11.50;22.60;;;;;;4916723;29;20256;-80
2024/02/28 00:20:54;;;;;;;25.43;23.53;;;11.50;22.70;;;;;;4926881;29;20695;-80
2024/02/28 00:23:19;;;;;;;24.70;22.80;;;11.50;22.70;;;;;;4930831;29;20185;-80
2024/02/28 00:25:45;;;;;;;23.03;21.37;;;11.40;22.20;;;;;;4905603;29;20794;-80
2024/02/28 00:28:10;;;;;;;22.90;21.30;;;11.30;22.20;;;;;;4920849;29;20195;-80
2024/02/28 00:30:36;;;;;;;22.70;21.07;;;11.30;22.10;;;;;;4917051;29;20244;-80
2024/02/28 00:33:02;;;;;;;22.07;20.47;;;11.30;22.40;;;;;;4914606;29;20274;-80
2024/02/28 00:35:35;;;;;;;22.50;20.80;;;11.30;22.20;;;;;;4938500;29;20213;-81
2024/02/28 00:38:01;;;;;;;21.77;20.20;;;11.30;21.50;;;;;;4913636;29;20526;-80
2024/02/28 00:40:28;;;;;;;22.10;20.50;;;11.30;21.10;;;;;;4912618;29;20457;-80
2024/02/28 00:42:54;;;;;;;21.70;19.90;;;11.40;21.20;;;;;;4911997;29;20192;-80
2024/02/28 00:45:19;;;;;;;23.17;21.37;;;11.40;21.10;;;;;;4915024;29;20802;-79
2024/02/28 00:47:45;;;;;;;22.53;20.83;;;11.40;21.20;;;;;;4933349;29;20456;-79
2024/02/28 00:50:11;;;;;;;23.40;21.67;;;11.40;21.20;;;;;;4926285;29;20195;-79
2024/02/28 00:52:37;;;;;;;22.43;20.77;;;11.40;21.30;;;;;;4919522;29;20176;-80
2024/02/28 00:55:04;;;;;;;24.00;22.20;;;11.50;21.40;;;;;;4927290;29;20188;-78
2024/02/28 00:57:30;;;;;;;24.63;22.83;;;11.50;21.00;;;;;;4931431;29;20492;-81
2024/02/28 00:59:56;;;;;;;23.30;21.40;;;11.50;20.90;;;;;;4905664;29;20437;-80
2024/02/28 01:02:21;;;;;;;23.67;21.87;;;11.40;20.70;;;;;;4917727;29;20197;-79
2024/02/28 01:04:47;;;;;;;22.80;21.10;;;11.30;20.70;;;;;;4932172;29;20196;-81
2024/02/28 01:07:12;;;;;;;23.67;22.07;;;11.30;20.90;;;;;;4905906;29;20238;-79
2024/02/28 01:09:38;;;;;;;24.47;22.43;;;11.20;21.00;;;;;;4904987;29;20291;-80
2024/02/28 01:12:03;;;;;;;23.80;22.10;;;11.30;20.90;;;;;;4920288;29;20180;-79
2024/02/28 01:14:29;;;;;;;23.97;21.80;;;11.30;20.90;;;;;;4924836;29;20250;-80
2024/02/28 01:16:55;;;;;;;22.70;20.90;;;11.30;20.90;;;;;;4915225;29;20211;-80
2024/02/28 01:19:20;;;;;;;23.40;21.60;;;11.30;21.00;;;;;;4930704;29;20199;-81
2024/02/28 01:21:46;;;;;;;24.63;22.83;;;11.30;21.00;;;;;;4919813;29;20197;-80
2024/02/28 01:24:11;;;;;;;24.23;22.43;;;11.30;20.90;;;;;;4913003;29;20192;-80
2024/02/28 01:26:37;;;;;;;23.77;21.87;;;11.30;21.00;;;;;;4929176;29;20219;-80
2024/02/28 01:29:02;;;;;;;25.37;23.53;;;11.30;21.20;;;;;;4923372;29;20884;-81
2024/02/28 01:31:28;;;;;;;25.20;23.30;;;11.20;21.30;;;;;;4916814;29;20192;-81
2024/02/28 01:33:55;;;;;;;24.53;22.73;;;11.20;21.30;;;;;;4916691;29;20259;-82
2024/02/28 01:36:21;;;;;;;24.43;22.57;;;11.20;21.50;;;;;;4930501;29;20215;-80
2024/02/28 01:38:46;;;;;;;24.67;22.57;;;11.20;21.60;;;;;;4909191;29;20523;-81
2024/02/28 01:41:12;;;;;;;24.70;22.80;;;11.20;21.70;;;;;;4923532;29;20645;-79
2024/02/28 01:43:37;;;;;;;25.67;23.57;;;11.20;21.80;;;;;;4920895;29;20199;-79
2024/02/28 01:46:10;;;;;;;25.10;23.20;;;11.20;21.70;;;;;;4929414;29;20608;-81
2024/02/28 01:48:35;;;;;;;25.40;23.30;;;11.30;21.70;;;;;;4923992;29;20192;-81
2024/02/28 01:51:01;;;;;;;24.93;22.97;;;11.20;21.70;;;;;;4923223;29;20506;-80
2024/02/28 01:53:27;;;;;;;24.90;23.00;;;11.20;21.80;;;;;;4908960;29;20222;-79
2024/02/28 01:55:54;;;;;;;24.70;22.70;;;11.30;21.90;;;;;;4907221;29;20460;-80
2024/02/28 01:58:20;;;;;;;25.00;22.80;;;11.20;21.70;;;;;;4925691;29;20180;-79
2024/02/28 02:00:46;;;;;;;24.23;22.53;;;11.10;22.10;;;;;;4913219;29;20458;-80
2024/02/28 02:03:12;;;;;;;28.13;25.73;;;11.10;22.20;;;;;;4936584;29;20191;-78
2024/02/28 02:05:38;;;;;;;27.17;24.93;;;11.10;22.30;;;;;;4939230;29;20425;-78
2024/02/28 02:08:05;;;;;;;24.87;22.90;;;11.10;22.50;;;;;;4919197;29;20203;-79
2024/02/28 02:10:31;;;;;;;25.80;23.80;;;11.00;22.60;;;;;;4908740;29;20492;-78
2024/02/28 02:13:04;;;;;;;23.53;21.77;;;11.00;22.80;;;;;;4906822;29;20436;-78
2024/02/28 02:15:31;;;;;;;26.10;23.80;;;10.90;23.30;;;;;;4918102;29;20217;-79
2024/02/28 02:17:56;;;;;;;25.40;23.23;;;10.80;23.70;;;;;;4932311;29;20479;-79
2024/02/28 02:20:23;;;;;;;25.50;23.50;;;10.80;23.70;;;;;;4908671;29;20416;-79
2024/02/28 02:22:48;;;;;;;25.07;23.20;;;10.80;23.70;;;;;;4916667;29;20177;-79
2024/02/28 02:25:14;;;;;;;26.13;24.03;;;10.80;23.70;;;;;;4900172;29;20425;-79
2024/02/28 02:27:39;;;;;;;23.60;21.87;;;10.70;23.70;;;;;;4916901;29;20200;-79
2024/02/28 02:30:05;;;;;;;24.70;22.80;;;10.70;23.80;;;;;;4916524;29;20189;-79
2024/02/28 02:32:31;;;;;;;25.47;23.57;;;10.70;23.70;;;;;;4900594;29;20192;-78
2024/02/28 02:34:57;;;;;;;26.47;24.30;;;10.60;23.60;;;;;;4903991;29;21125;-79
2024/02/28 02:37:22;;;;;;;25.27;23.27;;;10.60;23.70;;;;;;4920768;29;20211;-80
2024/02/28 02:39:48;;;;;;;24.50;22.70;;;10.70;23.80;;;;;;4906029;29;20196;-78
2024/02/28 02:42:17;;;;;;;25.50;23.50;;;10.70;23.80;;;;;;4923509;29;20181;-78
2024/02/28 02:44:42;;;;;;;26.23;24.33;;;10.70;23.70;;;;;;4908478;29;20181;-79
2024/02/28 02:47:08;;;;;;;24.27;22.37;;;10.70;23.70;;;;;;4908353;29;20866;-80
2024/02/28 02:49:33;;;;;;;25.03;23.23;;;10.60;23.90;;;;;;4925078;29;20188;-78
2024/02/28 02:51:59;;;;;;;24.50;22.50;;;10.60;24.00;;;;;;4905452;29;20189;-78
2024/02/28 02:54:24;;;;;;;23.83;22.10;;;10.70;23.70;;;;;;4906003;29;20212;-78
2024/02/28 02:56:50;;;;;;;23.57;21.67;;;10.60;23.70;;;;;;4906250;29;20211;-79
2024/02/28 02:59:15;;;;;;;24.57;22.77;;;10.60;24.20;;;;;;4905935;29;20185;-79
2024/02/28 03:01:41;;;;;;;24.50;22.70;;;10.60;24.20;;;;;;4922228;29;20197;-80
2024/02/28 03:04:07;;;;;;;25.13;23.17;;;10.60;23.90;;;;;;4920905;29;20180;-80
2024/02/28 03:06:32;;;;;;;25.23;23.33;;;10.60;24.30;;;;;;4922412;29;20224;-79
2024/02/28 03:08:58;;;;;;;26.83;24.77;;;10.50;24.20;;;;;;4904530;29;20268;-79
2024/02/28 03:11:24;;;;;;;23.87;22.10;;;10.50;24.10;;;;;;4904951;29;20188;-79
2024/02/28 03:13:50;;;;;;;23.10;21.33;;;10.60;24.30;;;;;;4904953;29;20216;-80
2024/02/28 03:16:15;;;;;;;24.70;22.70;;;10.50;24.30;;;;;;4905108;29;20452;-78
2024/02/28 03:18:40;;;;;;;25.30;23.30;;;10.50;24.40;;;;;;4922303;29;20240;-80
2024/02/28 03:21:06;;;;;;;24.87;23.07;;;10.60;24.40;;;;;;4911500;29;20223;-80
2024/02/28 03:23:32;;;;;;;26.03;24.00;;;10.60;24.00;;;;;;4931336;29;20695;-79
2024/02/28 03:25:58;;;;;;;25.10;23.17;;;10.50;24.00;;;;;;4931588;29;20200;-79
2024/02/28 03:28:23;;;;;;;25.63;23.60;;;10.50;24.50;;;;;;4932241;29;20424;-78
2024/02/28 03:30:49;;;;;;;26.03;24.00;;;10.50;24.20;;;;;;4917091;29;20184;-80
2024/02/28 03:33:14;;;;;;;26.67;24.87;;;10.50;24.00;;;;;;4933718;29;20676;-80
2024/02/28 03:35:40;;;;;;;26.03;24.03;;;10.50;24.00;;;;;;4909303;29;20172;-79
2024/02/28 03:38:05;;;;;;;25.40;23.40;;;10.50;23.90;;;;;;4918309;29;20507;-80
2024/02/28 03:40:31;;;;;;;25.57;23.67;;;10.50;23.70;;;;;;4916712;29;20187;-79
2024/02/28 03:42:56;;;;;;;26.80;24.63;;;10.50;23.90;;;;;;4916745;29;20180;-79
2024/02/28 03:45:22;;;;;;;25.70;23.70;;;10.60;24.60;;;;;;4907494;29;20199;-79
2024/02/28 03:47:48;;;;;;;24.70;22.70;;;10.50;24.20;;;;;;4922272;29;20291;-79
2024/02/28 03:50:13;;;;;;;26.50;24.40;;;10.50;24.10;;;;;;4912391;29;20468;-80
2024/02/28 03:52:39;;;;;;;26.90;24.90;;;10.50;24.20;;;;;;4929906;29;20679;-80
2024/02/28 03:55:05;;;;;;;23.77;22.07;;;10.50;24.10;;;;;;4930353;29;20220;-80
2024/02/28 03:57:30;;;;;;;26.87;24.87;;;10.50;24.00;;;;;;4925288;29;20204;-79
2024/02/28 03:59:56;;;;;;;25.80;23.87;;;10.50;24.10;;;;;;4916148;29;20180;-80
2024/02/28 04:02:21;;;;;;;26.27;24.17;;;10.40;23.90;;;;;;4915356;29;20256;-80
2024/02/28 04:04:47;;;;;;;26.30;24.30;;;10.40;24.10;;;;;;4929721;29;20189;-78
2024/02/28 04:07:12;;;;;;;26.13;24.17;;;10.40;24.10;;;;;;4911757;29;20276;-78
2024/02/28 04:09:38;;;;;;;25.93;24.03;;;10.30;24.20;;;;;;4929145;29;20188;-79
2024/02/28 04:12:04;;;;;;;27.27;25.07;;;10.40;24.30;;;;;;4904285;29;20943;-80
2024/02/28 04:14:29;;;;;;;26.13;24.23;;;10.40;24.20;;;;;;4929877;29;20251;-80
2024/02/28 04:16:55;;;;;;;26.40;24.50;;;10.40;24.30;;;;;;4914053;29;20200;-79
2024/02/28 04:19:20;;;;;;;25.90;24.00;;;10.40;24.10;;;;;;4914003;29;20523;-79
2024/02/28 04:21:46;;;;;;;25.07;23.40;;;10.50;23.80;;;;;;4914425;29;20711;-79
2024/02/28 04:24:11;;;;;;;26.23;24.23;;;10.50;23.50;;;;;;4914627;29;20270;-79
2024/02/28 04:26:36;;;;;;;25.10;23.30;;;10.60;23.60;;;;;;4912257;29;20215;-78
2024/02/28 04:29:07;;;;;;;25.50;23.67;;;10.60;23.60;;;;;;4932243;29;20184;-79
2024/02/28 04:31:33;;;;;;;26.50;24.60;;;10.60;23.60;;;;;;4917792;29;20199;-79
2024/02/28 04:33:58;;;;;;;24.97;23.17;;;10.70;23.60;;;;;;4932682;29;20588;-81
2024/02/28 04:36:24;;;;;;;25.03;23.13;;;10.70;23.50;;;;;;4918186;29;20196;-78
2024/02/28 04:38:49;;;;;;;25.83;23.93;;;10.70;23.40;;;;;;4931076;29;20220;-79
2024/02/28 04:41:15;;;;;;;26.37;24.47;;;10.70;23.20;;;;;;4912287;29;20541;-79
2024/02/28 04:43:40;;;;;;;27.23;25.20;;;10.80;23.30;;;;;;4908972;29;20594;-80
2024/02/28 04:46:06;;;;;;;25.37;23.20;;;10.80;23.50;;;;;;4909932;29;20212;-81
2024/02/28 04:48:32;;;;;;;26.30;24.40;;;10.80;23.50;;;;;;4929810;29;20310;-78
2024/02/28 04:50:57;;;;;;;28.10;26.10;;;10.70;23.70;;;;;;4902227;29;20248;-79
2024/02/28 04:53:23;;;;;;;26.53;24.63;;;10.60;23.60;;;;;;4912195;29;20212;-80
2024/02/28 04:55:48;;;;;;;27.37;25.37;;;10.60;23.60;;;;;;4930378;29;20173;-80
2024/02/28 04:58:14;;;;;;;26.40;24.60;;;10.60;23.60;;;;;;4930919;29;20181;-80
2024/02/28 05:00:39;;;;;;;27.00;25.00;;;10.50;23.50;;;;;;4923375;29;20267;-79
2024/02/28 05:03:05;;;;;;;24.40;22.63;;;10.50;23.60;;;;;;4906271;29;20184;-79
2024/02/28 05:05:30;;;;;;;26.17;24.10;;;10.50;23.50;;;;;;4922978;29;20185;-80
2024/02/28 05:07:56;;;;;;;25.27;23.40;;;10.50;23.50;;;;;;4922753;29;20708;-80
2024/02/28 05:10:21;;;;;;;26.00;24.00;;;10.50;23.50;;;;;;4905473;29;20630;-80
2024/02/28 05:12:47;;;;;;;25.33;23.53;;;10.50;23.50;;;;;;4922693;29;20240;-80
2024/02/28 05:15:12;;;;;;;25.77;23.87;;;10.40;23.60;;;;;;4905475;29;20209;-80
2024/02/28 05:17:38;;;;;;;24.60;22.90;;;10.40;23.90;;;;;;4922370;29;20247;-79
2024/02/28 05:20:03;;;;;;;25.40;23.60;;;10.40;23.70;;;;;;4928036;29;20372;-80
2024/02/28 05:22:29;;;;;;;25.13;23.33;;;10.30;24.00;;;;;;4932871;29;20550;-80
2024/02/28 05:24:54;;;;;;;24.67;22.70;;;10.20;24.10;;;;;;4922290;29;20562;-79
2024/02/28 05:27:20;;;;;;;24.53;22.73;;;10.30;24.00;;;;;;4929862;29;20208;-78
2024/02/28 05:29:45;;;;;;;25.43;23.53;;;10.30;23.90;;;;;;4919126;29;20189;-80
2024/02/28 05:32:11;;;;;;;27.00;25.10;;;10.30;23.70;;;;;;4899623;29;20199;-80
2024/02/28 05:34:37;;;;;;;26.80;25.00;;;10.40;23.50;;;;;;4901037;29;20737;-79
2024/02/28 05:37:03;;;;;;;26.63;24.73;;;10.30;23.40;;;;;;4920161;29;20228;-79
2024/02/28 05:39:31;;;;;;;25.30;23.60;;;10.30;23.60;;;;;;4914957;29;20218;-78
2024/02/28 05:41:57;;;;;;;26.27;24.23;;;10.30;24.00;;;;;;4920295;29;20195;-79
2024/02/28 05:44:24;;;;;;;26.37;24.50;;;10.30;23.90;;;;;;4914191;29;20457;-79
2024/02/28 05:46:50;;;;;;;25.03;23.23;;;10.20;24.00;;;;;;4915808;29;20444;-78
2024/02/28 05:49:15;;;;;;;25.30;23.17;;;10.10;24.00;;;;;;4913412;29;20525;-79
2024/02/28 05:51:41;;;;;;;25.00;23.23;;;10.10;24.30;;;;;;4901326;29;20439;-79
2024/02/28 05:54:06;;;;;;;27.30;25.33;;;10.10;24.30;;;;;;4929429;29;20224;-80
2024/02/28 05:56:32;;;;;;;26.10;24.10;;;10.10;24.30;;;;;;4921370;29;20207;-79
2024/02/28 05:58:57;;;;;;;25.87;24.17;;;10.00;24.40;;;;;;4926474;29;20183;-80
2024/02/28 06:01:23;;;;;;;25.63;23.43;;;10.00;24.70;;;;;;4932349;29;20168;-79
2024/02/28 06:03:48;;;;;;;27.17;25.30;;;10.00;25.10;;;;;;4929453;29;20547;-80
2024/02/28 06:06:14;;;;;;;27.80;25.80;;;9.90;25.50;;;;;;4928927;29;20295;-81
2024/02/28 06:08:43;;;;;;;29.03;26.93;;;9.90;25.60;;;;;;4931580;29;20184;-80
2024/02/28 06:11:09;;;;;;;27.83;25.80;;;10.00;24.90;;;;;;4914082;29;20621;-80
2024/02/28 06:13:35;;;;;;;26.23;24.23;;;10.00;24.70;;;;;;4926888;29;20496;-81
2024/02/28 06:16:01;;;;;;;28.50;26.50;;;10.00;24.70;;;;;;4925307;29;20988;-79
2024/02/28 06:18:28;;;;;;;27.60;25.60;;;10.00;24.70;;;;;;4933259;29;20460;-79
2024/02/28 06:20:54;;;;;;;29.07;27.03;;;10.00;24.60;;;;;;4933481;29;20495;-79
2024/02/28 06:23:20;;;;;;;27.50;25.40;;;10.00;24.50;;;;;;4916863;29;20432;-81
2024/02/28 06:25:46;;;;;;;27.00;24.80;;;10.00;24.50;;;;;;4934483;29;20491;-79
2024/02/28 06:28:11;;;;;;;26.23;24.40;;;9.90;25.50;;;;;;4921417;29;20419;-78
2024/02/28 06:30:37;;;;;;;27.40;25.40;;;9.90;25.30;;;;;;4931863;29;20176;-80
2024/02/28 06:33:04;;;;;;;27.10;25.20;;;9.90;25.50;;;;;;4915019;29;20201;-81
2024/02/28 06:35:30;;;;;;;28.40;26.30;;;9.90;25.50;;;;;;4916268;29;20181;-79
2024/02/28 06:37:55;;;;;;;26.70;24.80;;;9.90;25.60;;;;;;4931798;29;20476;-79
2024/02/28 06:40:21;;;;;;;27.97;25.97;;;9.90;25.70;;;;;;4915808;29;20173;-81
2024/02/28 06:42:46;;;;;;;26.77;24.83;;;9.90;25.60;;;;;;4915368;29;20333;-81
2024/02/28 06:45:12;;;;;;;27.03;25.13;;;9.90;25.70;;;;;;4912060;29;20231;-81
2024/02/28 06:47:37;;;;;;;26.60;24.50;;;9.90;26.00;;;;;;4931413;29;20552;-78
2024/02/28 06:50:04;;;;;;;26.27;24.47;;;9.90;25.80;;;;;;4929133;29;20185;-80
2024/02/28 06:52:30;;;;;;;25.73;23.83;;;9.90;25.70;;;;;;4913342;29;20472;-81
2024/02/28 06:54:56;;;;;;;25.00;23.17;;;10.00;24.90;;;;;;4912168;29;20981;-78
2024/02/28 06:57:21;;;;;;;26.23;24.20;;;10.00;24.90;;;;;;4923759;29;20463;-78
2024/02/28 06:59:48;;;;;;;28.97;26.77;;;10.00;24.70;;;;;;4918137;29;20204;-79
2024/02/28 07:02:14;;;;;;;27.50;25.40;;;10.10;24.60;;;;;;4912580;29;20216;-80
2024/02/28 07:04:40;;;;;;;27.70;25.70;;;10.00;24.70;;;;;;4907211;29;20801;-80
2024/02/28 07:07:06;;;;;;;28.20;26.10;;;10.10;24.70;;;;;;4935804;29;20232;-80
2024/02/28 07:09:32;;;;;;;28.70;26.60;;;10.10;24.60;;;;;;4933499;29;20471;-78
2024/02/28 07:12:01;;;;;;;27.57;25.47;;;10.10;24.70;;;;;;4926376;29;20187;-79
2024/02/28 07:14:27;;;;;;;27.03;25.03;;;10.10;24.40;;;;;;4911176;29;20503;-79
2024/02/28 07:16:53;;;;;;;28.43;26.10;;;10.00;24.40;;;;;;4928942;29;20470;-80
2024/02/28 07:19:18;;;;;;;27.87;25.87;;;10.00;24.90;;;;;;4905552;29;20425;-79
2024/02/28 07:21:44;;;;;;;28.50;26.27;;;10.00;24.70;;;;;;4920213;29;20443;-80
2024/02/28 07:24:10;;;;;;;28.70;26.60;;;10.00;24.60;;;;;;4929724;29;20181;-79
2024/02/28 07:26:35;;;;;;;28.30;26.20;;;10.00;24.60;;;;;;4926542;29;20215;-79
2024/02/28 07:29:01;;;;;;;29.57;27.37;;;10.00;24.50;;;;;;4915654;29;20219;-77
2024/02/28 07:31:27;;;;;;;28.97;26.70;;;9.90;25.20;;;;;;4924402;29;20558;-77
2024/02/28 07:33:53;;;;;;;29.30;27.10;;;9.90;25.50;;;;;;4896636;29;20205;-80
2024/02/28 07:36:19;;;;;;;28.30;26.10;;;9.70;26.50;;;;;;4929284;29;20448;-78
2024/02/28 07:38:45;;;;;;;27.90;25.97;;;9.70;26.50;;;;;;4915038;29;20775;-78
2024/02/28 07:41:10;;;;;;;27.17;25.17;;;9.80;26.10;;;;;;4926831;29;20427;-78
2024/02/28 07:43:38;;;;;;;30.07;27.77;;;9.80;25.70;;;;;;4929018;29;20274;-78
2024/02/28 07:46:08;;;;;;;29.10;26.80;;;9.90;25.70;;;;;;4929073;29;20205;-78
2024/02/28 07:48:34;;;;;;;26.87;24.87;;;10.00;24.90;;;;;;4911276;29;20595;-79
2024/02/28 07:50:59;;;;;;;27.80;25.73;;;10.00;24.70;;;;;;4908149;29;20541;-79
2024/02/28 07:53:25;;;;;;;28.93;26.93;;;10.00;25.20;;;;;;4933699;29;20228;-78
2024/02/28 07:55:50;;;;;;;30.50;28.30;;;10.10;25.20;;;;;;4920566;29;20185;-80
2024/02/28 07:58:16;;;;;;;29.03;26.83;;;10.10;25.20;;;;;;4920152;29;20561;-79
2024/02/28 08:00:43;;;;;;;28.63;26.53;;;10.10;25.20;;;;;;4943403;29;20598;-79
2024/02/28 08:03:09;;;;;;;28.93;26.87;;;10.20;25.40;;;;;;4915171;29;20922;-80
2024/02/28 08:05:38;;;;;;;27.60;25.50;;;10.20;25.00;;;;;;4930870;29;20453;-80
2024/02/28 08:08:05;;;;;;;28.87;26.43;;;10.20;24.60;;;;;;4930617;29;20488;-81
2024/02/28 08:10:31;;;;;;;28.93;26.73;;;10.20;24.50;;;;;;4930559;29;20417;-79
2024/02/28 08:12:56;;;;;;;26.53;24.53;;;10.20;24.10;;;;;;4934003;29;20457;-80
2024/02/28 08:15:22;;;;;;;28.73;26.63;;;10.10;24.20;;;;;;4911172;29;20214;-82
2024/02/28 08:17:48;;;;;;;28.30;26.30;;;10.10;24.20;;;;;;4929817;29;20431;-80
2024/02/28 08:20:13;;;;;;;29.17;27.07;;;10.10;24.30;;;;;;4928324;29;20719;-80
2024/02/28 08:22:39;;;;;;;29.47;27.23;;;10.10;24.60;;;;;;4911521;29;20173;-80
2024/02/28 08:25:05;;;;;;;29.53;27.33;;;10.20;24.50;;;;;;4927114;29;20272;-80
2024/02/28 08:27:31;;;;;;;29.43;27.13;;;10.20;24.50;;;;;;4933682;29;20694;-79
2024/02/28 08:29:56;;;;;;;29.80;27.60;;;10.20;24.30;;;;;;4908235;29;20452;-81
2024/02/28 08:32:22;;;;;;;29.20;26.90;;;10.20;24.20;;;;;;4926701;29;20196;-79
2024/02/28 08:34:47;;;;;;;29.73;27.40;;;10.10;24.60;;;;;;4931686;29;20228;-80
2024/02/28 08:37:14;;;;;;;32.07;29.57;;;10.10;24.70;;;;;;4932575;29;20216;-80
2024/02/28 08:39:40;;;;;;;28.17;26.07;;;10.10;24.40;;;;;;4931867;29;20507;-80
2024/02/28 08:42:05;;;;;;;31.33;28.93;;;10.00;24.60;;;;;;4928823;29;20176;-79
2024/02/28 08:44:31;;;;;;;29.67;27.43;;;10.10;24.80;;;;;;4929608;29;20625;-79
2024/02/28 08:46:57;;;;;;;32.80;30.10;;;10.10;24.50;;;;;;4929316;29;20566;-80
2024/02/28 08:49:22;;;;;;;27.40;25.40;;;10.10;24.70;;;;;;4912091;29;20196;-80
2024/02/28 08:51:48;;;;;;;29.57;27.47;;;10.00;24.90;;;;;;4920159;29;20184;-81
2024/02/28 08:54:13;;;;;;;30.47;28.10;;;10.00;24.80;;;;;;4903447;29;20209;-80
2024/02/28 08:56:39;;;;;;;29.10;26.77;;;10.00;24.70;;;;;;4920556;29;20211;-81
2024/02/28 08:59:04;;;;;;;32.00;29.30;;;10.00;25.10;;;;;;4920107;29;20184;-79
2024/02/28 09:01:30;;;;;;;29.13;26.80;;;9.90;25.90;;;;;;4919623;29;20177;-79
2024/02/28 09:03:55;;;;;;;33.50;31.00;;;9.90;26.10;;;;;;4903796;29;20191;-80
2024/02/28 09:06:22;;;;;;;29.23;27.03;;;9.90;25.90;;;;;;4925359;23;20303;-82
2024/02/28 09:08:49;;;;;;;32.07;29.77;;;10.00;25.10;;;;;;4913548;29;20216;-81
2024/02/28 09:11:15;;;;;;;29.13;26.83;;;10.10;24.90;;;;;;4908600;29;20456;-82
2024/02/28 09:13:40;;;;;;;29.20;26.90;;;10.20;24.70;;;;;;4933240;29;20224;-81
2024/02/28 09:16:06;;;;;;;30.70;28.40;;;10.20;24.40;;;;;;4914902;29;20181;-81
2024/02/28 09:18:31;;;;;;;30.30;28.00;;;10.20;24.40;;;;;;4912799;29;20182;-81
2024/02/28 09:20:57;;;;;;;28.93;26.83;;;10.20;24.60;;;;;;4902812;29;20188;-82
2024/02/28 09:23:23;;;;;;;31.07;28.70;;;10.10;25.00;;;;;;4911981;29;20193;-82
2024/02/28 09:25:49;;;;;;;30.93;28.73;;;10.10;24.90;;;;;;4903426;29;20185;-81
2024/02/28 09:28:15;;;;;;;29.20;27.00;;;10.10;24.80;;;;;;4905901;29;20489;-81
2024/02/28 09:30:42;;;;;;;30.23;27.80;;;10.00;25.10;;;;;;4895597;29;20721;-81
2024/02/28 09:33:08;;;;;;;30.40;27.73;;;9.90;26.30;;;;;;4895202;29;20461;-81
2024/02/28 09:35:35;;;;;;;30.40;28.00;;;9.90;25.90;;;;;;4907559;29;20442;-81
2024/02/28 09:38:02;;;;;;;29.77;27.53;;;9.90;25.90;;;;;;4903120;29;20525;-81
2024/02/28 09:40:27;;;;;;;32.83;30.13;;;10.00;25.10;;;;;;4895776;29;20575;-81
2024/02/28 09:43:02;;;;;;;30.33;28.03;;;10.10;24.90;;;;;;4911580;29;20575;-82
2024/02/28 09:45:30;;;;;;;29.80;27.60;;;10.10;24.50;;;;;;4904299;29;20200;-81
2024/02/28 09:47:57;;;;;;;29.60;27.47;;;10.20;24.40;;;;;;4912851;29;20453;-81
2024/02/28 09:50:23;;;;;;;27.20;25.20;;;10.20;24.30;;;;;;4911630;29;20461;-82
2024/02/28 09:52:49;;;;;;;28.97;26.87;;;10.20;23.50;;;;;;4895740;29;20798;-81
2024/02/28 09:55:15;;;;;;;28.37;26.47;;;10.30;23.80;;;;;;4913496;29;20469;-82
2024/02/28 09:57:43;;;;;;;27.70;25.70;;;10.20;24.10;;;;;;4894747;29;20233;-82
2024/02/28 10:00:10;;;;;;;28.30;26.20;;;10.10;23.90;;;;;;4910003;29;20438;-81
2024/02/28 10:02:39;;;;;;;26.37;24.37;;;10.20;23.80;;;;;;4918553;29;20492;-81
2024/02/28 10:05:06;;;;;;;24.73;23.00;;;10.30;23.40;;;;;;4889217;29;20445;-82
2024/02/28 10:07:32;;;;;;;23.97;22.17;;;10.30;22.90;;;;;;4912618;29;20489;-81
2024/02/28 10:09:57;;;;;;;25.47;23.50;;;10.30;22.40;;;;;;4917554;29;20764;-82
2024/02/28 10:12:23;;;;;;;24.07;22.43;;;10.30;22.20;;;;;;4908651;29;20437;-81
2024/02/28 10:14:51;;;;;;;22.93;21.30;;;10.30;22.20;;;;;;4905946;29;20294;-82
2024/02/28 10:17:17;;;;;;;23.53;21.93;;;10.40;21.70;;;;;;4903691;29;20217;-81
2024/02/28 10:19:43;;;;;;;23.73;22.00;;;10.30;21.60;;;;;;4913410;29;20444;-82
2024/02/28 10:22:08;;;;;;;22.47;20.77;;;10.40;21.30;;;;;;4911574;29;20182;-82
2024/02/28 10:24:37;;;;;;;22.13;20.63;;;10.40;21.10;;;;;;4908143;29;20189;-81
2024/02/28 10:27:03;;;;;;;21.10;19.70;;;10.40;20.90;;;;;;4888354;29;20213;-82
2024/02/28 10:29:29;;;;;;;22.90;21.30;;;10.40;21.10;;;;;;4910719;29;20432;-81
2024/02/28 10:31:58;;;;;;;22.73;20.97;;;10.40;21.10;;;;;;4894856;29;20444;-81
2024/02/28 10:34:24;;;;;;;22.70;21.13;;;10.40;21.20;;;;;;4895888;29;20493;-81
2024/02/28 10:36:50;;;;;;;23.30;21.60;;;10.40;21.30;;;;;;4912472;29;20472;-81
2024/02/28 10:39:16;;;;;;;25.00;23.30;;;10.30;21.50;;;;;;4895677;29;20196;-82
2024/02/28 10:41:43;;;;;;;24.70;22.80;;;10.10;22.30;;;;;;4908091;29;20441;-82
2024/02/28 10:44:10;;;;;;;24.33;22.50;;;10.00;22.50;;;;;;4913077;29;20429;-82
2024/02/28 10:46:38;;;;;;;25.40;23.70;;;9.90;23.50;;;;;;4913307;29;20450;-82
2024/02/28 10:49:08;;;;;;;25.50;23.37;;;10.00;22.60;;;;;;4889339;29;20426;-82
2024/02/28 10:51:37;;;;;;;24.47;22.77;;;10.10;22.60;;;;;;4911492;29;20425;-80
2024/02/28 10:54:13;;;;;;;23.70;22.10;;;10.10;22.40;;;;;;4912351;29;20469;-81
2024/02/28 10:56:40;;;;;;;23.50;21.83;;;10.30;22.20;;;;;;4916681;29;20493;-81
2024/02/28 10:59:07;;;;;;;24.47;22.67;;;10.30;21.90;;;;;;4899316;29;20465;-81
2024/02/28 11:01:35;;;;;;;24.60;22.70;;;10.40;22.30;;;;;;4916365;29;20436;-80
2024/02/28 11:04:02;;;;;;;23.77;21.90;;;10.50;21.70;;;;;;4899651;29;20819;-81
2024/02/28 11:06:28;;;;;;;24.60;22.83;;;10.50;21.50;;;;;;4900797;29;20476;-82
2024/02/28 11:08:56;;;;;;;23.53;21.83;;;10.60;21.30;;;;;;4900180;29;20468;-84
2024/02/28 11:11:25;;;;;;;24.50;22.50;;;10.60;21.80;;;;;;4899334;29;20448;-83
2024/02/28 11:13:55;;;;;;;26.33;24.33;;;10.60;21.20;;;;;;4937371;29;20508;-82
2024/02/28 11:16:27;;;;;;;25.90;24.00;;;10.60;21.40;;;;;;4905778;29;20471;-82
2024/02/28 11:18:53;;;;;;;27.80;25.40;;;10.70;21.30;;;;;;4930620;29;20443;-82
2024/02/28 11:21:19;;;;;;;26.07;24.10;;;10.60;21.30;;;;;;4908187;29;20778;-83
2024/02/28 11:23:48;;;;;;;25.30;23.50;;;10.60;21.50;;;;;;4900187;29;20545;-82
2024/02/28 11:26:14;;;;;;;26.00;23.93;;;10.50;21.50;;;;;;4899512;29;20454;-82
2024/02/28 11:28:40;;;;;;;24.47;22.77;;;10.50;21.90;;;;;;4908282;29;20444;-82
2024/02/28 11:31:06;;;;;;;27.07;25.07;;;10.40;21.70;;;;;;4914455;29;20193;-81
2024/02/28 11:33:33;;;;;;;24.73;22.70;;;10.50;21.80;;;;;;4916173;29;20232;-80
2024/02/28 11:35:59;;;;;;;28.00;25.90;;;10.40;21.70;;;;;;4915786;29;20216;-81
2024/02/28 11:38:28;;;;;;;26.97;24.87;;;10.40;21.70;;;;;;4898297;29;20828;-81
2024/02/28 11:40:55;;;;;;;24.67;22.77;;;10.40;21.70;;;;;;4905912;29;20480;-81
2024/02/28 11:43:21;;;;;;;26.97;24.80;;;10.40;22.00;;;;;;4915134;29;20918;-81
2024/02/28 11:45:46;;;;;;;25.43;23.63;;;10.40;22.10;;;;;;4897801;29;20456;-82
2024/02/28 11:48:16;;;;;;;24.47;22.80;;;10.50;22.20;;;;;;4902784;29;20461;-82
2024/02/28 11:50:42;;;;;;;25.17;23.17;;;10.50;21.80;;;;;;4883245;29;20675;-82
2024/02/28 11:53:08;;;;;;;26.63;24.67;;;10.50;21.60;;;;;;4903326;29;20735;-82
2024/02/28 11:55:34;;;;;;;28.20;26.10;;;10.40;21.90;;;;;;4909196;29;20458;-82
2024/02/28 11:58:00;;;;;;;25.33;23.50;;;10.30;22.10;;;;;;4915076;29;20450;-81
2024/02/28 12:00:26;;;;;;;24.87;22.97;;;10.30;22.10;;;;;;4909597;29;20441;-82
2024/02/28 12:02:52;;;;;;;25.47;23.60;;;10.30;22.20;;;;;;4898516;29;20438;-82
2024/02/28 12:05:19;;;;;;;24.50;22.60;;;10.30;22.10;;;;;;4914641;29;20204;-82
2024/02/28 12:07:45;;;;;;;26.23;24.30;;;10.40;22.00;;;;;;4899229;29;20728;-82
2024/02/28 12:10:11;;;;;;;25.87;23.70;;;10.50;21.60;;;;;;4905309;29;20473;-82
2024/02/28 12:12:38;;;;;;;24.90;22.93;;;10.60;21.40;;;;;;4899089;29;20181;-81
2024/02/28 12:15:05;;;;;;;24.83;22.93;;;10.60;21.00;;;;;;4897883;29;20488;-81
2024/02/28 12:17:31;;;;;;;26.20;24.23;;;10.70;20.90;;;;;;4898178;29;20513;-81
2024/02/28 12:20:00;;;;;;;24.47;22.67;;;10.70;20.70;;;;;;4913957;29;20437;-83
2024/02/28 12:22:25;;;;;;;25.33;23.53;;;10.70;20.90;;;;;;4894901;29;20438;-80